createdAt,value
2022-12-03T00:00:43.921Z,21.13
2022-12-03T00:03:11.624Z,22.43
2022-12-03T00:05:41.828Z,16.63
2022-12-03T00:08:15.838Z,20.38
2022-12-03T00:10:43.549Z,20.92
2022-12-03T00:13:11.413Z,21.88
2022-12-03T00:15:39.000Z,19.33
2022-12-03T00:18:07.470Z,22.92
2022-12-03T00:20:35.317Z,22.08
2022-12-03T00:23:02.773Z,20.73
2022-12-03T00:25:30.537Z,20.38
2022-12-03T00:27:59.095Z,27.10
2022-12-03T00:30:26.478Z,25.70
2022-12-03T00:32:53.828Z,21.83
2022-12-03T00:35:21.328Z,21.05
2022-12-03T00:37:48.844Z,24.90
2022-12-03T00:40:16.518Z,21.90
2022-12-03T00:42:44.057Z,23.75
2022-12-03T00:45:11.879Z,23.77
2022-12-03T00:47:39.246Z,21.13
2022-12-03T00:50:07.379Z,19.80
2022-12-03T00:52:34.626Z,21.70
2022-12-03T00:55:02.180Z,24.10
2022-12-03T00:57:29.507Z,24.27
2022-12-03T00:59:57.044Z,22.10
2022-12-03T01:02:24.576Z,25.48
2022-12-03T01:04:52.555Z,24.37
2022-12-03T01:07:19.945Z,23.25
2022-12-03T01:09:47.290Z,24.20
2022-12-03T01:12:14.650Z,22.85
2022-12-03T01:14:41.926Z,25.05
2022-12-03T01:17:09.588Z,23.03
2022-12-03T01:19:36.879Z,23.85
2022-12-03T01:22:04.265Z,23.73
2022-12-03T01:24:32.120Z,24.23
2022-12-03T01:27:00.871Z,24.88
2022-12-03T01:29:28.073Z,24.67
2022-12-03T01:32:16.114Z,20.23
2022-12-03T01:34:44.394Z,23.02
2022-12-03T01:37:14.169Z,27.30
2022-12-03T01:39:41.966Z,21.55
2022-12-03T01:42:10.281Z,22.83
2022-12-03T01:44:37.888Z,26.08
2022-12-03T01:47:08.806Z,23.25
2022-12-03T01:49:47.619Z,25.30
2022-12-03T01:52:17.087Z,23.48
2022-12-03T01:55:01.618Z,24.47
2022-12-03T01:57:38.749Z,24.85
2022-12-03T02:00:06.768Z,26.83
2022-12-03T02:02:35.091Z,24.58
2022-12-03T02:05:02.703Z,23.17
2022-12-03T02:07:34.261Z,20.73
2022-12-03T02:10:02.538Z,24.08
2022-12-03T02:12:37.173Z,23.85
2022-12-03T02:15:08.407Z,23.85
2022-12-03T02:17:36.030Z,23.15
2022-12-03T02:20:03.823Z,23.43
2022-12-03T02:22:49.768Z,22.65
2022-12-03T02:25:24.882Z,21.50
2022-12-03T02:27:53.899Z,27.85
2022-12-03T02:30:22.578Z,28.30
2022-12-03T02:33:00.552Z,25.23
2022-12-03T02:35:29.677Z,24.35
2022-12-03T02:37:58.859Z,24.55
2022-12-03T02:40:28.528Z,23.02
2022-12-03T02:42:57.625Z,28.48
2022-12-03T02:45:29.596Z,23.77
2022-12-03T02:47:56.699Z,22.52
2022-12-03T02:50:25.951Z,25.42
2022-12-03T02:52:54.265Z,24.27
2022-12-03T02:55:21.761Z,25.20
2022-12-03T02:57:49.894Z,24.83
2022-12-03T03:00:18.376Z,25.33
2022-12-03T03:02:46.448Z,24.05
2022-12-03T03:05:14.721Z,26.70
2022-12-03T03:07:44.050Z,27.20
2022-12-03T03:10:13.630Z,23.63
2022-12-03T03:12:41.391Z,27.60
2022-12-03T03:15:10.167Z,27.80
2022-12-03T03:17:37.476Z,22.75
2022-12-03T03:20:05.576Z,26.10
2022-12-03T03:22:41.154Z,25.80
2022-12-03T03:25:10.954Z,27.42
2022-12-03T03:27:38.975Z,26.42
2022-12-03T03:30:07.167Z,23.80
2022-12-03T03:32:34.879Z,26.75
2022-12-03T03:35:02.453Z,24.13
2022-12-03T03:37:29.838Z,24.80
2022-12-03T03:39:57.294Z,24.70
2022-12-03T03:42:24.952Z,27.15
2022-12-03T03:44:52.540Z,22.98
2022-12-03T03:47:20.614Z,25.53
2022-12-03T03:49:50.674Z,26.52
2022-12-03T03:52:19.033Z,27.25
2022-12-03T03:55:11.572Z,20.67
2022-12-03T03:57:39.849Z,23.98
2022-12-03T04:00:09.338Z,25.77
2022-12-03T04:02:37.527Z,26.48
2022-12-03T04:05:05.803Z,26.65
2022-12-03T04:07:33.536Z,24.73
2022-12-03T04:10:21.010Z,27.75
2022-12-03T04:12:57.402Z,30.47
2022-12-03T04:15:25.128Z,28.30
2022-12-03T04:18:12.135Z,29.13
2022-12-03T04:20:40.104Z,23.75
2022-12-03T04:23:09.099Z,25.98
2022-12-03T04:26:11.689Z,24.60
2022-12-03T04:28:51.631Z,24.17
2022-12-03T04:31:37.607Z,24.05
2022-12-03T04:34:28.447Z,24.10
2022-12-03T04:36:55.736Z,22.88
2022-12-03T04:39:22.957Z,22.97
2022-12-03T04:41:50.124Z,28.52
2022-12-03T04:44:36.896Z,24.83
2022-12-03T04:47:07.555Z,27.60
2022-12-03T04:49:35.858Z,26.38
2022-12-03T04:52:04.359Z,24.80
2022-12-03T04:54:31.650Z,28.67
2022-12-03T04:56:58.925Z,25.52
2022-12-03T04:59:26.290Z,24.77
2022-12-03T05:01:53.547Z,21.48
2022-12-03T05:04:20.892Z,29.07
2022-12-03T05:06:48.192Z,27.98
2022-12-03T05:09:15.772Z,26.55
2022-12-03T05:11:43.536Z,16.67
2022-12-03T05:14:11.047Z,25.85
2022-12-03T05:16:38.552Z,25.60
2022-12-03T05:19:06.477Z,29.00
2022-12-03T05:21:33.742Z,25.25
2022-12-03T05:24:01.147Z,27.27
2022-12-03T05:26:28.582Z,26.80
2022-12-03T05:28:56.161Z,26.13
2022-12-03T05:31:23.777Z,25.88
2022-12-03T05:33:51.397Z,29.73
2022-12-03T05:36:18.861Z,26.38
2022-12-03T05:38:47.231Z,26.75
2022-12-03T05:41:34.181Z,22.23
2022-12-03T05:44:01.841Z,24.50
2022-12-03T05:46:29.581Z,25.42
2022-12-03T05:49:02.058Z,27.20
2022-12-03T05:51:29.279Z,28.92
2022-12-03T05:53:56.546Z,25.13
2022-12-03T05:56:24.203Z,28.95
2022-12-03T05:58:51.728Z,25.08
2022-12-03T06:01:19.067Z,27.20
2022-12-03T06:03:46.565Z,27.65
2022-12-03T06:06:13.966Z,26.43
2022-12-03T06:08:41.286Z,27.20
2022-12-03T06:11:09.412Z,26.35
2022-12-03T06:13:36.620Z,27.90
2022-12-03T06:16:04.029Z,27.75
2022-12-03T06:18:31.399Z,30.63
2022-12-03T06:20:58.723Z,25.38
2022-12-03T06:23:25.991Z,29.42
2022-12-03T06:25:53.414Z,27.05
2022-12-03T06:28:20.963Z,29.10
2022-12-03T06:30:48.296Z,25.07
2022-12-03T06:33:15.634Z,26.95
2022-12-03T06:35:42.925Z,21.67
2022-12-03T06:38:10.305Z,26.88
2022-12-03T06:40:38.386Z,24.58
2022-12-03T06:43:05.856Z,24.47
2022-12-03T06:45:33.320Z,25.73
2022-12-03T06:48:00.786Z,23.13
2022-12-03T06:50:28.285Z,20.23
2022-12-03T06:52:55.685Z,23.05
2022-12-03T06:55:23.118Z,21.43
2022-12-03T06:57:50.808Z,23.73
2022-12-03T07:00:19.352Z,24.73
2022-12-03T07:02:46.578Z,23.63
2022-12-03T07:05:14.363Z,25.92
2022-12-03T07:07:41.562Z,21.17
2022-12-03T07:10:09.076Z,25.00
2022-12-03T07:12:36.374Z,20.65
2022-12-03T07:15:03.858Z,25.75
2022-12-03T07:17:31.267Z,26.02
2022-12-03T07:19:58.621Z,22.17
2022-12-03T07:22:26.439Z,26.52
2022-12-03T07:24:54.203Z,28.50
2022-12-03T07:27:21.673Z,20.83
2022-12-03T07:29:49.056Z,23.13
2022-12-03T07:32:16.573Z,26.67
2022-12-03T07:34:44.350Z,27.95
2022-12-03T07:37:11.792Z,23.05
2022-12-03T07:39:39.279Z,30.20
2022-12-03T07:42:06.794Z,29.50
2022-12-03T07:44:34.221Z,27.53
2022-12-03T07:47:01.596Z,27.67
2022-12-03T07:49:31.898Z,27.35
2022-12-03T07:51:58.965Z,27.10
2022-12-03T07:54:26.222Z,17.20
2022-12-03T07:56:57.912Z,22.63
2022-12-03T07:59:29.324Z,25.10
2022-12-03T08:01:57.273Z,25.98
2022-12-03T08:04:25.218Z,30.02
2022-12-03T08:06:52.727Z,24.88
2022-12-03T08:09:20.120Z,27.73
2022-12-03T08:11:50.267Z,26.00
2022-12-03T08:14:18.850Z,26.40
2022-12-03T08:16:47.148Z,29.17
2022-12-03T08:19:16.305Z,28.67
2022-12-03T08:21:43.665Z,22.03
2022-12-03T08:24:21.671Z,27.10
2022-12-03T08:26:49.857Z,19.00
2022-12-03T08:29:23.020Z,27.02
2022-12-03T08:31:55.302Z,24.67
2022-12-03T08:34:23.926Z,27.03
2022-12-03T08:36:59.255Z,29.83
2022-12-03T08:39:34.597Z,27.95
2022-12-03T08:42:35.853Z,31.02
2022-12-03T08:45:28.048Z,27.33
2022-12-03T08:48:02.988Z,33.33
2022-12-03T08:50:32.999Z,30.50
2022-12-03T08:53:08.440Z,24.58
2022-12-03T08:55:38.051Z,33.00
2022-12-03T08:58:24.271Z,29.77
2022-12-03T09:00:59.554Z,25.93
2022-12-03T09:03:30.405Z,30.88
2022-12-03T09:05:57.561Z,24.00
2022-12-03T09:08:24.732Z,25.45
2022-12-03T09:10:51.910Z,34.85
2022-12-03T09:13:19.003Z,24.53
2022-12-03T09:15:46.123Z,30.33
2022-12-03T09:18:14.566Z,30.02
2022-12-03T09:20:41.719Z,20.92
2022-12-03T09:23:09.167Z,29.15
2022-12-03T09:25:36.408Z,23.57
2022-12-03T09:28:03.688Z,30.48
2022-12-03T09:30:30.925Z,24.55
2022-12-03T09:32:59.697Z,32.60
2022-12-03T09:35:27.243Z,24.55
2022-12-03T09:37:54.443Z,28.83
2022-12-03T09:40:21.791Z,31.80
2022-12-03T09:42:49.057Z,30.35
2022-12-03T09:45:16.384Z,28.48
2022-12-03T09:47:53.330Z,32.70
2022-12-03T09:50:22.450Z,36.30
2022-12-03T09:52:50.946Z,24.33
2022-12-03T09:55:22.277Z,29.10
2022-12-03T09:57:54.237Z,33.53
2022-12-03T10:00:24.081Z,32.10
2022-12-03T10:02:52.971Z,35.20
2022-12-03T10:05:21.086Z,23.33
2022-12-03T10:07:49.157Z,35.17
2022-12-03T10:10:18.174Z,26.10
2022-12-03T10:12:45.362Z,28.40
2022-12-03T10:15:14.150Z,24.50
2022-12-03T10:17:41.874Z,29.50
2022-12-03T10:20:12.095Z,33.42
2022-12-03T10:22:40.681Z,26.67
2022-12-03T10:25:13.043Z,32.25
2022-12-03T10:27:40.981Z,33.20
2022-12-03T10:30:19.879Z,29.17
2022-12-03T10:32:48.346Z,33.20
2022-12-03T10:35:17.613Z,30.38
2022-12-03T10:37:57.047Z,34.60
2022-12-03T10:40:31.993Z,36.57
2022-12-03T10:43:18.179Z,21.30
2022-12-03T10:45:55.802Z,31.13
2022-12-03T10:48:30.191Z,24.55
2022-12-03T10:51:11.983Z,36.42
2022-12-03T10:53:42.035Z,36.17
2022-12-03T10:56:20.597Z,35.85
2022-12-03T10:58:49.349Z,39.80
2022-12-03T11:01:18.359Z,37.75
2022-12-03T11:03:46.141Z,37.13
2022-12-03T11:06:15.437Z,33.10
2022-12-03T11:09:01.407Z,26.88
2022-12-03T11:11:31.858Z,39.75
2022-12-03T11:13:59.454Z,34.55
2022-12-03T11:16:47.555Z,37.20
2022-12-03T11:19:19.317Z,39.20
2022-12-03T11:22:27.863Z,37.33
2022-12-03T11:25:14.248Z,35.80
2022-12-03T11:27:45.004Z,36.10
2022-12-03T11:30:12.180Z,37.42
2022-12-03T11:32:39.681Z,31.83
2022-12-03T11:35:29.402Z,37.67
2022-12-03T11:38:17.199Z,31.23
2022-12-03T11:41:04.415Z,39.42
2022-12-03T11:43:50.800Z,35.83
2022-12-03T11:46:19.347Z,32.17
2022-12-03T11:48:47.469Z,34.67
2022-12-03T11:51:17.199Z,38.17
2022-12-03T11:53:45.008Z,36.60
2022-12-03T11:56:24.353Z,36.28
2022-12-03T11:58:58.898Z,35.17
2022-12-03T12:01:38.318Z,34.28
2022-12-03T12:04:08.006Z,35.58
2022-12-03T12:06:43.329Z,27.77
2022-12-03T12:09:10.529Z,29.77
2022-12-03T12:11:42.256Z,35.53
2022-12-03T12:14:12.310Z,22.23
2022-12-03T12:16:45.684Z,27.15
2022-12-03T12:19:31.185Z,26.75
2022-12-03T12:22:18.277Z,34.80
2022-12-03T12:24:47.335Z,21.70
2022-12-03T13:09:37.063Z,26.35
2022-12-03T13:12:04.696Z,23.38
2022-12-03T13:14:34.210Z,26.30
2022-12-03T13:17:02.371Z,23.38
2022-12-03T13:19:48.205Z,18.13
2022-12-03T13:22:22.670Z,20.80
2022-12-03T13:25:01.797Z,21.33
2022-12-03T13:27:30.338Z,26.10
2022-12-03T13:30:06.745Z,16.60
2022-12-03T13:32:45.357Z,21.83
2022-12-03T13:35:27.553Z,18.05
2022-12-03T13:37:56.255Z,21.67
2022-12-03T13:40:34.662Z,21.77
2022-12-03T13:43:16.311Z,19.83
2022-12-03T13:45:49.760Z,24.37
2022-12-03T13:48:35.915Z,18.85
2022-12-03T13:51:14.626Z,20.83
2022-12-03T13:53:44.355Z,33.60
2022-12-03T13:56:20.560Z,30.58
2022-12-03T13:58:49.206Z,24.30
2022-12-03T14:01:18.914Z,20.60
2022-12-03T14:03:46.816Z,22.98
2022-12-03T14:06:14.490Z,22.67
2022-12-03T14:08:41.821Z,25.38
2022-12-03T14:11:09.139Z,26.80
2022-12-03T14:13:36.349Z,21.98
2022-12-03T14:16:03.644Z,22.23
2022-12-03T14:18:31.950Z,20.75
2022-12-03T14:21:00.087Z,26.60
2022-12-03T14:23:27.977Z,25.67
2022-12-03T14:25:55.444Z,27.80
2022-12-03T14:28:22.697Z,33.60
2022-12-03T14:30:50.021Z,32.25
2022-12-03T14:33:17.233Z,28.88
2022-12-03T14:35:44.690Z,32.40
2022-12-03T14:38:12.170Z,41.35
2022-12-03T14:40:40.012Z,41.08
2022-12-03T14:43:07.400Z,35.88
2022-12-03T14:45:41.240Z,35.47
2022-12-03T14:48:14.032Z,38.13
2022-12-03T14:50:42.247Z,32.85
2022-12-03T14:53:10.592Z,42.50
2022-12-03T14:55:38.097Z,38.60
2022-12-03T14:58:05.577Z,39.88
2022-12-03T15:00:33.132Z,35.60
2022-12-03T15:03:00.315Z,38.08
2022-12-03T15:05:29.073Z,38.03
2022-12-03T15:07:56.809Z,31.02
2022-12-03T15:10:24.061Z,37.33
2022-12-03T15:12:51.696Z,37.03
2022-12-03T15:15:19.124Z,27.98
2022-12-03T15:17:47.333Z,31.55
2022-12-03T15:20:14.673Z,32.22
2022-12-03T15:22:41.791Z,36.83
2022-12-03T15:25:09.246Z,21.63
2022-12-03T15:27:36.636Z,32.47
2022-12-03T15:30:03.906Z,20.98
2022-12-03T15:32:31.434Z,27.83
2022-12-03T15:34:58.716Z,29.48
2022-12-03T15:37:30.539Z,21.93
2022-12-03T15:40:07.008Z,25.88
2022-12-03T15:42:34.189Z,29.60
2022-12-03T15:45:01.340Z,34.00
2022-12-03T15:47:29.376Z,33.80
2022-12-03T15:49:56.808Z,24.70
2022-12-03T15:52:24.122Z,26.35
2022-12-03T15:54:51.363Z,19.70
2022-12-03T15:57:18.530Z,21.45
2022-12-03T15:59:45.809Z,20.98
2022-12-03T16:02:13.230Z,25.57
2022-12-03T16:04:49.918Z,24.75
2022-12-03T16:07:21.310Z,29.27
2022-12-03T16:09:48.995Z,27.77
2022-12-03T16:12:16.271Z,25.30
2022-12-03T16:14:43.697Z,24.80
2022-12-03T16:17:11.062Z,29.20
2022-12-03T16:19:38.436Z,31.17
2022-12-03T16:22:06.845Z,26.42
2022-12-03T16:24:34.096Z,30.60
2022-12-03T16:27:02.564Z,26.63
2022-12-03T16:29:30.928Z,32.90
2022-12-03T16:32:01.650Z,31.02
2022-12-03T16:34:28.888Z,35.58
2022-12-03T16:36:56.146Z,33.08
2022-12-03T16:39:23.818Z,31.07
2022-12-03T16:41:51.426Z,40.70
2022-12-03T16:44:54.929Z,37.72
2022-12-03T16:47:23.044Z,36.85
2022-12-03T16:49:50.703Z,40.35
2022-12-03T16:52:19.463Z,35.90
2022-12-03T16:54:46.658Z,37.80
2022-12-03T16:57:13.999Z,37.80
2022-12-03T16:59:42.507Z,34.30
2022-12-03T17:02:09.985Z,41.67
2022-12-03T17:04:37.156Z,44.40
2022-12-03T17:07:04.664Z,25.17
2022-12-03T17:09:31.993Z,36.17
2022-12-03T17:12:02.001Z,36.95
2022-12-03T17:14:35.571Z,36.50
2022-12-03T17:17:03.904Z,35.42
2022-12-03T17:19:33.396Z,39.78
2022-12-03T17:22:01.056Z,37.45
2022-12-03T17:24:28.952Z,42.53
2022-12-03T17:26:59.470Z,38.88
2022-12-03T17:29:26.656Z,31.17
2022-12-03T17:31:53.810Z,40.03
2022-12-03T17:34:20.979Z,33.58
2022-12-03T17:36:48.660Z,41.17
2022-12-03T17:39:15.996Z,38.03
2022-12-03T17:41:44.809Z,31.45
2022-12-03T17:44:17.747Z,38.63
2022-12-03T17:46:51.733Z,26.25
2022-12-03T17:49:18.951Z,34.00
2022-12-03T17:51:46.256Z,25.90
2022-12-03T17:54:13.900Z,37.53
2022-12-03T17:56:43.540Z,36.83
2022-12-03T17:59:14.743Z,36.33
2022-12-03T18:01:47.198Z,39.97
2022-12-03T18:04:16.109Z,38.72
2022-12-03T18:06:44.659Z,30.73
2022-12-03T18:09:11.949Z,40.13
2022-12-03T18:11:39.288Z,40.90
2022-12-03T18:14:07.119Z,36.33
2022-12-03T18:16:34.422Z,40.45
2022-12-03T18:19:06.173Z,36.40
2022-12-03T18:21:37.577Z,35.78
2022-12-03T18:24:07.613Z,35.03
2022-12-03T18:26:35.949Z,44.15
2022-12-03T18:29:03.710Z,47.92
2022-12-03T18:31:32.329Z,41.10
2022-12-03T18:33:59.609Z,42.38
2022-12-03T18:36:29.981Z,42.90
2022-12-03T18:39:00.780Z,37.65
2022-12-03T18:41:36.275Z,42.63
2022-12-03T18:44:04.302Z,36.10
2022-12-03T18:46:52.331Z,39.70
2022-12-03T18:49:21.019Z,40.78
2022-12-03T18:51:49.378Z,36.17
2022-12-03T18:54:20.030Z,33.08
2022-12-03T18:56:49.475Z,50.60
2022-12-03T18:59:19.387Z,29.15
2022-12-03T19:01:46.925Z,37.15
2022-12-03T19:04:16.833Z,38.40
2022-12-03T19:06:45.354Z,39.25
2022-12-03T19:09:14.154Z,33.57
2022-12-03T19:11:41.447Z,38.13
2022-12-03T19:14:11.809Z,40.80
2022-12-03T19:16:39.720Z,27.10
2022-12-03T19:19:17.016Z,24.77
2022-12-03T19:21:44.225Z,36.40
2022-12-03T19:24:26.768Z,29.52
2022-12-03T19:27:03.194Z,29.33
2022-12-03T19:29:30.450Z,28.73
2022-12-03T19:31:57.877Z,37.03
2022-12-03T19:34:26.364Z,35.00
2022-12-03T19:36:53.587Z,35.22
2022-12-03T19:39:20.753Z,36.13
2022-12-03T19:41:50.978Z,32.35
2022-12-03T19:44:19.369Z,26.38
2022-12-03T19:46:46.590Z,28.90
2022-12-03T19:49:17.012Z,30.60
2022-12-03T19:51:46.417Z,33.13
2022-12-03T19:54:16.300Z,31.15
2022-12-03T19:56:45.359Z,37.78
2022-12-03T19:59:13.537Z,36.50
2022-12-03T20:01:42.997Z,37.58
2022-12-03T20:04:12.109Z,29.05
2022-12-03T20:06:40.372Z,31.90
2022-12-03T20:09:17.672Z,32.80
2022-12-03T20:11:45.839Z,34.78
2022-12-03T20:14:19.717Z,47.90
2022-12-03T20:16:48.596Z,51.40
2022-12-03T20:19:17.204Z,66.70
2022-12-03T20:21:44.934Z,35.00
2022-12-03T20:24:14.813Z,29.63
2022-12-03T20:26:42.173Z,38.10
2022-12-03T20:29:09.456Z,35.30
2022-12-03T20:31:36.800Z,42.10
2022-12-03T20:34:04.282Z,35.65
2022-12-03T20:36:32.522Z,43.50
2022-12-03T20:39:01.576Z,32.17
2022-12-03T20:41:31.714Z,42.90
2022-12-03T20:44:07.311Z,37.95
2022-12-03T20:46:34.823Z,38.28
2022-12-03T20:49:02.187Z,35.93
2022-12-03T20:51:31.765Z,37.00
2022-12-03T20:54:08.018Z,37.78
2022-12-03T20:56:48.636Z,37.22
2022-12-03T20:59:17.057Z,33.80
2022-12-03T21:01:44.942Z,37.97
2022-12-03T21:04:21.138Z,40.92
2022-12-03T21:06:49.815Z,36.05
2022-12-03T21:09:17.074Z,33.83
2022-12-03T21:11:45.643Z,34.75
2022-12-03T21:14:13.980Z,39.93
2022-12-03T21:19:33.926Z,36.67
2022-12-03T21:22:02.513Z,34.35
2022-12-03T21:24:36.703Z,38.92
2022-12-03T21:27:08.160Z,33.47
2022-12-03T21:29:35.401Z,34.58
2022-12-03T21:32:02.678Z,35.80
2022-12-03T21:34:35.798Z,32.92
2022-12-03T21:37:20.355Z,32.65
2022-12-03T21:39:49.048Z,35.70
2022-12-03T21:42:22.078Z,38.33
2022-12-03T21:45:06.327Z,30.85
2022-12-03T21:47:39.397Z,36.10
2022-12-03T21:50:09.010Z,35.80
2022-12-03T21:52:44.171Z,30.77
2022-12-03T21:57:46.745Z,30.92
2022-12-03T22:00:15.834Z,32.30
2022-12-03T22:02:43.897Z,31.90
2022-12-03T22:05:12.126Z,34.10
2022-12-03T22:07:40.131Z,37.03
2022-12-03T22:10:09.874Z,32.08
2022-12-03T22:12:37.203Z,28.65
2022-12-03T22:15:04.567Z,33.50
2022-12-03T22:17:31.888Z,35.67
2022-12-03T22:20:09.034Z,26.42
2022-12-03T22:22:36.802Z,33.95
2022-12-03T22:25:04.344Z,36.97
2022-12-03T22:27:34.655Z,35.40
2022-12-03T22:30:01.823Z,38.50
2022-12-03T22:32:28.931Z,33.83
2022-12-03T22:34:56.086Z,31.90
2022-12-03T22:37:24.524Z,29.50
2022-12-03T22:39:51.704Z,36.47
2022-12-03T22:42:18.860Z,39.13
2022-12-03T22:44:46.137Z,36.55
2022-12-03T22:47:14.538Z,33.25
2022-12-03T22:49:41.741Z,37.05
2022-12-03T22:52:09.052Z,37.28
2022-12-03T22:54:43.129Z,32.53
2022-12-03T22:57:16.157Z,31.30
2022-12-03T22:59:43.732Z,34.80
2022-12-03T23:02:11.051Z,36.95
2022-12-03T23:04:38.465Z,39.30
2022-12-03T23:07:08.127Z,39.60
2022-12-03T23:09:35.381Z,38.00
2022-12-03T23:12:02.606Z,36.55
2022-12-03T23:14:45.694Z,34.45
2022-12-03T23:20:01.608Z,36.40
2022-12-03T23:22:28.828Z,38.10
2022-12-03T23:24:56.041Z,40.10
2022-12-03T23:27:23.178Z,37.22
2022-12-03T23:29:50.382Z,44.95
2022-12-03T23:32:17.753Z,42.23
2022-12-03T23:34:47.828Z,34.33
2022-12-03T23:37:15.134Z,41.50
2022-12-03T23:39:42.488Z,34.50
2022-12-03T23:42:09.633Z,39.65
2022-12-03T23:44:36.838Z,39.10
2022-12-03T23:47:06.891Z,36.22
2022-12-03T23:49:34.348Z,30.55
2022-12-03T23:52:08.570Z,40.05
2022-12-03T23:54:37.536Z,39.63
2022-12-03T23:57:04.899Z,35.47
2022-12-03T23:59:38.608Z,29.38
